Agana Heights, GU

6:47 AM ChST on April 01, 2015 (GMT +1000)
Maite | | Change Station
CLOSE
Current Station
Personal Weather Station
Location: Maite, GU
Elevation: 140 ft
Nearby Weather Stations

Elev 140 ft 13.48 °N, 144.76 °E | Updated 13 seconds ago

Overcast
Overcast
78.6 °F
Feels Like 82 °F
N
2.0
Wind Variable Wind from ESE
Gusts 9.0 mph

Today
High -- | Low -- °F
--% Chance of Precip.
Yesterday
High -- | Low -- °F
Precip. -- in
6:17 AM 6:32 PM
Waxing Gibbous, 88% visible
Pressure 29.90 in
Visibility 8.0 miles
Clouds Few 1200 ft
Mostly Cloudy 2700 ft
Overcast 4400 ft
Heat Index 82 °F
Dew Point 77 °F
Humidity 95%
Rainfall 0.58 in
Snow Depth Not available.
UV 0.0 out of 12
Pollen Not available.
Air Quality Not available.
Flu Activity Not available.
SPECI PGUM 312040Z 08009KT 8SM FEW012 BKN027 OVC044 26/25 A2990 RMK AO2

More Conditions Fewer Conditions

Pressure 29.90 in
Visibility 8.0 miles
Clouds Few 1200 ft
Mostly Cloudy 2700 ft
Overcast 4400 ft
Heat Index 82 °F
Dew Point 77 °F
Humidity 95%
Rainfall 0.58 in
Snow Depth Not available.
UV 0.0 out of 12
Pollen Not available.
Air Quality Not available.
Flu Activity Not available.
SPECI PGUM 312040Z 08009KT 8SM FEW012 BKN027 OVC044 26/25 A2990 RMK AO2

More Conditions Fewer Conditions

10-Day Weather Forecast

Almanac

Astronomy

Apr. 01, 2015 Rise Set
Actual Time
Civil Twilight
Nautical Twilight
Astronomical Twilight
Moon
Length of Visible Light
Length of Day
Tomorrow will be .
, % of the Moon is Illuminated

Today's Extremes

State Highs State Lows

Community

WunderPhotos

Upload Photos

1,809,826 photos uploaded!

WunderBlogs® & News

Nearby

Air Quality

  Air Quality AQ Index Pollutant
Not available.

Snow Depth

Station Depth Elevation

Earthquake Activity

City Distance Mag. Time & Date
Minimum magnitude displayed is 2.5.

Coastal Water Temperatures

Place Temperature

Stations

Nearby Weather Stations

Station Location Temp. Windchill Dew Point Humidity Wind Precip. Elev Updated Type